Pagrindinis puslapis
METAR-TAF:

METAR-TAF

Oro uostai :

Oro pajėgų bazė

Chamis Mušaitas, Saudo Arabija

platuma: 18-18N, ilguma: 042-48E, Aukštis: 2066 m

Dabartinis oras

Ataskaita buvo paskelbta 18 minutes, ne 15:00 UTC
Vėjas 9 kt iš Rytų
Temperatūra 23°C
Drėgmė 14%
Slėgis 1026 hPa
Matomumas 10 km arba daugiau
nėra debesų žemiau 1500 m ir nėra kamuolinių lietaus debesų

METAR: OEKM 231500Z 09009KT CAVOK 23/M06 Q1026 NOSIG

Laikas: 18:18 (15:18 UTC)

Prognozė

Ataskaita buvo paskelbta 4 valandos ir 18 minutes, ne 11:00 UTC
Prognozė galioja nuo 23 metu 12 UTC su 24 metu 18 UTC
Vėjas 10 kt iš Rytų/Pietryčių
Matomumas 10 km arba daugiau
Mažai debesys ne aukštis 2000 ft
Tikimybė 30% :
Laikinai
nuo 23 metu 12 UTC su 23 metu 16 UTC
Mažai debesys ne aukštis 2500 ft, Liūtiniai kamuoliniai debesys.
Tapsmas
nuo 23 metu 18 UTC su 23 metu 20 UTC
Vėjas 3 kt nuo kintamojo kryptimis
Matomumas 10 km arba daugiau
nėra debesų žemiau 1500 m ir nėra kamuolinių lietaus debesų

TAF: OEKM 231100Z 2312/2418 11010KT 9999 FEW020 PROB30 TEMPO 2312/2316 FEW025CB BECMG 2318/2320 VRB03KT CAVOK

Orai ataskaitas ir orų prognozės (METAR, TAF).

turimą stotys yra geltonos ir raudonos taškus žemėlapyje.

Perkelti pele per norėdami pamatyti stoties vardą.

Tada spustelėkite, norėdami matyti oro stebėjimo ir prognozės.

Norėdami pakeisti žemėlapį: spustelėkite ant žalios mygtukų su juodo kryžiaus žemyn,; žalią mygtuką su brūkšneliu, jei norite nutolinti; arba žalių rodyklių gretimoms žemėlapius.


METAR-TAF: